Time;durP1;ratioP1;P1;durP2;ratioP2;P2;SDS_P1;SDS_P2;PMS_P1;PMS_P2;Temp;Humidity;BMP_temperature;BMP_pressure;BME280_temperature;BME280_humidity;BME280_pressure;Samples;Min_cycle;Max_cycle;Signal;HPM_P1;HPM_P2
2020/12/31 00:02:10;;;;;;;25.60;13.05;;;;;;;1.97;100.00;99663.66;5025164;28;20321;-55
2020/12/31 00:04:37;;;;;;;20.73;10.52;;;;;;;1.95;100.00;99662.94;5030821;28;20333;-55
2020/12/31 00:07:04;;;;;;;18.58;9.73;;;;;;;2.04;100.00;99666.56;5029081;28;20041;-55
2020/12/31 00:09:31;;;;;;;19.30;9.80;;;;;;;2.01;100.00;99656.31;5030520;28;20049;-54
2020/12/31 00:11:59;;;;;;;21.58;9.65;;;;;;;2.23;100.00;99652.59;5024945;28;20116;-55
2020/12/31 00:14:26;;;;;;;17.15;9.85;;;;;;;2.18;100.00;99655.66;5029246;28;20041;-55
2020/12/31 00:16:52;;;;;;;16.15;9.57;;;;;;;2.11;100.00;99649.25;5030295;28;20472;-54
2020/12/31 00:19:19;;;;;;;17.38;9.77;;;;;;;2.22;100.00;99646.47;5030528;28;20046;-53
2020/12/31 00:21:46;;;;;;;16.60;8.88;;;;;;;2.21;100.00;99643.97;5024685;28;20052;-52
2020/12/31 00:24:13;;;;;;;18.52;8.27;;;;;;;2.28;100.00;99642.47;5029483;28;20052;-52
2020/12/31 00:26:40;;;;;;;19.05;9.98;;;;;;;2.31;100.00;99636.94;5028780;28;20057;-54
2020/12/31 00:29:08;;;;;;;14.88;8.77;;;;;;;2.28;100.00;99639.81;5030382;28;20045;-52
2020/12/31 00:31:36;;;;;;;20.23;9.43;;;;;;;2.33;100.00;99634.16;5025877;28;20049;-54
2020/12/31 00:34:03;;;;;;;16.92;8.95;;;;;;;2.28;100.00;99628.47;5028517;28;20341;-55
2020/12/31 00:36:30;;;;;;;18.60;9.43;;;;;;;2.27;100.00;99634.69;5029527;28;20042;-55
2020/12/31 00:38:59;;;;;;;16.38;9.45;;;;;;;2.33;100.00;99627.06;5028775;28;20453;-54
2020/12/31 00:41:26;;;;;;;19.02;9.23;;;;;;;2.31;100.00;99617.63;5026654;28;20080;-54
2020/12/31 00:43:54;;;;;;;19.63;9.32;;;;;;;2.29;100.00;99615.16;5030583;28;20052;-54
2020/12/31 00:46:22;;;;;;;17.98;9.98;;;;;;;2.21;100.00;99615.00;5026691;28;20071;-55
2020/12/31 00:48:49;;;;;;;19.58;9.23;;;;;;;2.24;100.00;99614.75;5029409;28;20448;-55
2020/12/31 00:51:16;;;;;;;17.70;8.38;;;;;;;2.22;100.00;99611.41;5027270;28;20045;-55
2020/12/31 00:53:43;;;;;;;16.25;9.50;;;;;;;2.24;100.00;99618.22;5019970;28;20052;-56
2020/12/31 00:56:11;;;;;;;17.08;8.70;;;;;;;2.28;100.00;99620.56;5026552;28;20446;-59
2020/12/31 00:58:38;;;;;;;17.48;9.10;;;;;;;2.19;100.00;99615.16;5029389;28;20048;-57
2020/12/31 01:01:06;;;;;;;15.60;8.00;;;;;;;2.16;100.00;99615.44;5022499;28;20041;-53
2020/12/31 01:03:34;;;;;;;20.27;8.30;;;;;;;2.17;100.00;99611.84;5028600;28;20060;-55
2020/12/31 01:06:01;;;;;;;16.52;8.60;;;;;;;2.21;100.00;99609.72;5030824;28;20049;-55
2020/12/31 01:08:28;;;;;;;12.73;7.63;;;;;;;2.17;100.00;99606.56;5029039;28;20142;-56
2020/12/31 01:10:55;;;;;;;13.93;7.72;;;;;;;2.11;100.00;99611.53;5028754;28;20352;-55
2020/12/31 01:13:22;;;;;;;18.58;8.63;;;;;;;2.15;100.00;99613.75;5033117;28;20092;-55
2020/12/31 01:15:49;;;;;;;13.50;7.20;;;;;;;2.15;100.00;99612.94;5033045;28;20085;-55
2020/12/31 01:18:16;;;;;;;16.23;7.30;;;;;;;2.21;100.00;99605.31;5033720;28;20065;-53
2020/12/31 01:20:44;;;;;;;13.68;7.55;;;;;;;2.24;100.00;99601.59;5030279;28;20049;-54
2020/12/31 01:23:11;;;;;;;14.32;7.28;;;;;;;2.38;100.00;99597.66;5028495;28;20340;-54
2020/12/31 01:25:38;;;;;;;13.50;7.47;;;;;;;2.16;100.00;99597.00;5031386;28;20057;-54
2020/12/31 01:28:05;;;;;;;11.55;6.40;;;;;;;2.23;100.00;99602.53;5033477;28;20046;-56
2020/12/31 01:30:32;;;;;;;21.75;9.43;;;;;;;2.29;100.00;99598.53;5029964;28;20045;-56
2020/12/31 01:32:59;;;;;;;12.82;6.97;;;;;;;2.20;100.00;99594.91;5032153;28;20389;-54
2020/12/31 01:35:26;;;;;;;8.63;5.55;;;;;;;2.24;100.00;99593.69;5034000;28;20037;-53
2020/12/31 01:37:54;;;;;;;13.65;5.20;;;;;;;2.12;100.00;99598.22;5032330;28;20349;-56
2020/12/31 01:40:21;;;;;;;13.15;5.72;;;;;;;2.13;100.00;99593.81;5033219;28;20042;-55
2020/12/31 01:42:47;;;;;;;16.00;5.40;;;;;;;2.08;100.00;99594.22;5028284;28;20076;-55
2020/12/31 01:45:14;;;;;;;10.05;5.07;;;;;;;2.06;100.00;99589.09;5031727;28;20045;-56
2020/12/31 01:47:41;;;;;;;11.38;5.35;;;;;;;2.02;100.00;99592.97;5032745;28;20053;-55
2020/12/31 01:50:09;;;;;;;12.15;5.78;;;;;;;2.03;100.00;99588.53;5031204;28;20076;-54
2020/12/31 01:52:36;;;;;;;11.63;4.80;;;;;;;2.09;100.00;99597.69;5029538;28;20064;-56
2020/12/31 01:55:04;;;;;;;8.50;4.35;;;;;;;2.08;100.00;99598.66;5029376;28;20041;-54
2020/12/31 01:57:32;;;;;;;11.32;6.28;;;;;;;2.08;100.00;99596.84;5031085;28;20057;-54
2020/12/31 01:59:58;;;;;;;9.45;5.00;;;;;;;2.13;100.00;99592.00;5032465;28;20041;-54
2020/12/31 02:02:26;;;;;;;9.40;3.97;;;;;;;2.09;100.00;99595.06;5030567;28;20077;-55
2020/12/31 02:04:53;;;;;;;10.00;3.72;;;;;;;2.04;100.00;99577.88;5031751;28;20052;-55
2020/12/31 02:07:22;;;;;;;9.57;4.18;;;;;;;2.05;100.00;99586.59;5030734;28;20060;-54
2020/12/31 02:09:49;;;;;;;6.72;3.67;;;;;;;2.10;100.00;99580.91;5033082;28;20053;-51
2020/12/31 02:12:16;;;;;;;7.82;3.42;;;;;;;1.97;100.00;99595.19;5027288;28;20045;-56
2020/12/31 02:14:50;;;;;;;7.38;3.83;;;;;;;2.00;100.00;99584.38;5028598;28;20433;-57
2020/12/31 02:17:17;;;;;;;6.93;3.47;;;;;;;2.01;100.00;99588.69;5031065;28;20041;-56
2020/12/31 02:19:44;;;;;;;9.32;3.53;;;;;;;2.16;100.00;99589.09;5031852;28;20076;-53
2020/12/31 02:22:15;;;;;;;8.23;3.92;;;;;;;2.04;100.00;99593.66;5027582;28;20045;-56
2020/12/31 02:24:42;;;;;;;12.73;4.75;;;;;;;2.31;100.00;99586.88;5029951;28;20318;-55
2020/12/31 02:27:09;;;;;;;10.10;3.97;;;;;;;2.23;100.00;99584.91;5030948;28;20060;-55
2020/12/31 02:29:36;;;;;;;6.85;4.15;;;;;;;2.24;100.00;99589.22;5030908;28;20038;-57
2020/12/31 02:32:04;;;;;;;7.57;4.38;;;;;;;2.25;100.00;99582.16;5029253;28;20042;-56
2020/12/31 02:34:31;;;;;;;7.38;4.03;;;;;;;2.28;100.00;99581.84;5031630;28;20045;-57
2020/12/31 02:36:58;;;;;;;10.20;5.93;;;;;;;2.23;100.00;99584.09;5031183;28;20343;-53
2020/12/31 02:39:26;;;;;;;9.05;4.18;;;;;;;2.23;100.00;99581.47;5030255;28;20045;-57
2020/12/31 02:41:53;;;;;;;8.80;4.68;;;;;;;2.24;100.00;99573.41;5029135;28;20464;-55
2020/12/31 02:44:19;;;;;;;8.35;4.60;;;;;;;2.15;100.00;99576.06;5030651;28;20112;-55
2020/12/31 02:46:46;;;;;;;6.40;4.45;;;;;;;2.15;100.00;99576.06;5029884;28;20045;-56
2020/12/31 02:49:13;;;;;;;8.05;4.15;;;;;;;2.11;100.00;99566.78;5028932;28;20045;-55
2020/12/31 02:51:40;;;;;;;11.20;4.25;;;;;;;2.06;100.00;99572.47;5026303;28;20046;-55
2020/12/31 02:54:07;;;;;;;8.30;5.32;;;;;;;2.01;100.00;99564.97;5022335;28;20034;-54
2020/12/31 02:56:35;;;;;;;8.00;3.90;;;;;;;2.03;100.00;99563.03;5028819;28;20041;-55
2020/12/31 02:59:02;;;;;;;12.25;5.32;;;;;;;1.84;100.00;99558.59;5031121;28;20053;-52
2020/12/31 03:01:28;;;;;;;9.73;4.90;;;;;;;1.85;100.00;99559.41;5024080;28;20052;-54
2020/12/31 03:03:55;;;;;;;9.82;4.70;;;;;;;1.84;100.00;99558.59;5028800;28;20331;-50
2020/12/31 03:06:22;;;;;;;8.50;4.93;;;;;;;1.88;100.00;99559.13;5027652;28;20052;-53
2020/12/31 03:08:49;;;;;;;9.13;4.72;;;;;;;1.93;100.00;99558.72;5025060;28;20080;-53
2020/12/31 03:11:20;;;;;;;11.13;5.35;;;;;;;1.99;100.00;99555.56;5024215;28;20329;-51
2020/12/31 03:13:47;;;;;;;6.38;4.15;;;;;;;1.94;100.00;99558.56;5031758;28;20076;-54
2020/12/31 03:16:15;;;;;;;6.97;4.18;;;;;;;1.96;100.00;99558.47;5030031;28;20044;-51
2020/12/31 03:18:42;;;;;;;10.68;5.78;;;;;;;1.98;100.00;99556.50;5024705;28;20053;-50
2020/12/31 03:21:10;;;;;;;9.60;5.43;;;;;;;2.08;100.00;99553.88;5023587;28;20480;-52
2020/12/31 03:23:38;;;;;;;11.40;5.40;;;;;;;1.99;100.00;99545.84;5026853;28;20048;-52
2020/12/31 03:26:06;;;;;;;13.50;5.93;;;;;;;2.05;100.00;99549.72;5027837;28;20056;-52
2020/12/31 03:28:33;;;;;;;10.73;5.53;;;;;;;1.89;100.00;99551.09;5031360;28;20053;-53
2020/12/31 03:31:01;;;;;;;9.90;5.22;;;;;;;1.83;100.00;99546.41;5024727;28;20047;-53
2020/12/31 03:33:28;;;;;;;9.07;5.03;;;;;;;1.83;100.00;99546.41;5030361;28;20049;-54
2020/12/31 03:35:54;;;;;;;9.98;4.50;;;;;;;1.81;100.00;99544.88;5029968;28;20041;-53
2020/12/31 03:38:22;;;;;;;10.93;5.68;;;;;;;1.87;100.00;99545.16;5029488;28;20053;-53
2020/12/31 03:40:49;;;;;;;10.02;5.75;;;;;;;1.79;100.00;99539.75;5028227;28;20561;-53
2020/12/31 03:43:16;;;;;;;11.35;6.32;;;;;;;1.76;100.00;99539.16;5026529;28;20038;-51
2020/12/31 03:45:43;;;;;;;10.85;5.93;;;;;;;1.72;100.00;99533.38;5025740;28;20041;-53
2020/12/31 03:48:11;;;;;;;11.77;5.72;;;;;;;1.66;100.00;99540.00;5029647;28;20041;-53
2020/12/31 03:50:38;;;;;;;11.02;6.97;;;;;;;1.65;100.00;99535.69;5026414;28;20055;-53
2020/12/31 03:53:06;;;;;;;14.43;6.15;;;;;;;1.61;100.00;99534.31;5025585;28;20096;-54
2020/12/31 03:55:33;;;;;;;10.90;6.22;;;;;;;1.56;100.00;99526.00;5028602;28;20376;-56
2020/12/31 03:58:00;;;;;;;17.33;6.93;;;;;;;1.84;100.00;99526.16;5027353;28;20056;-54
2020/12/31 04:00:27;;;;;;;10.73;6.65;;;;;;;1.89;100.00;99527.41;5027220;28;20056;-54
2020/12/31 04:02:54;;;;;;;25.30;12.27;;;;;;;1.92;100.00;99522.84;5024476;28;20056;-54
2020/12/31 04:05:22;;;;;;;23.45;9.35;;;;;;;1.84;100.00;99515.63;5027243;28;20043;-50
2020/12/31 04:07:49;;;;;;;23.50;10.82;;;;;;;1.85;100.00;99522.56;5022366;28;20137;-56
2020/12/31 04:10:15;;;;;;;20.70;9.57;;;;;;;1.84;100.00;99521.75;5027483;28;20053;-56
2020/12/31 04:12:42;;;;;;;14.43;6.40;;;;;;;1.71;100.00;99511.44;5022502;28;20049;-56
2020/12/31 04:15:09;;;;;;;15.68;8.15;;;;;;;1.65;100.00;99509.38;5027787;28;20377;-55
2020/12/31 04:17:36;;;;;;;11.10;6.47;;;;;;;1.62;100.00;99519.38;5028725;28;20069;-54
2020/12/31 04:20:05;;;;;;;10.88;7.13;;;;;;;1.52;100.00;99512.28;5026314;28;20050;-56
2020/12/31 04:22:32;;;;;;;12.90;6.85;;;;;;;1.53;100.00;99508.69;5025710;28;20353;-55
2020/12/31 04:24:59;;;;;;;11.90;6.22;;;;;;;1.62;100.00;99507.03;5029087;28;20306;-54
2020/12/31 04:27:26;;;;;;;11.82;7.10;;;;;;;1.60;100.00;99501.06;5029200;28;20325;-56
2020/12/31 04:29:53;;;;;;;11.05;6.20;;;;;;;1.56;100.00;99497.06;5030634;28;20053;-56
2020/12/31 04:32:20;;;;;;;13.20;7.20;;;;;;;1.76;100.00;99495.28;5026526;28;20061;-51
2020/12/31 04:34:47;;;;;;;8.68;4.88;;;;;;;1.67;100.00;99489.03;5028721;28;20048;-55
2020/12/31 04:37:14;;;;;;;8.52;5.13;;;;;;;1.65;100.00;99490.97;5029292;28;20068;-56
2020/12/31 04:39:42;;;;;;;11.65;6.03;;;;;;;1.64;100.00;99484.03;5029760;28;20422;-54
2020/12/31 04:42:12;;;;;;;11.23;5.25;;;;;;;1.58;100.00;99481.97;5026217;28;20041;-52
2020/12/31 04:44:40;;;;;;;11.18;5.75;;;;;;;1.50;100.00;99479.19;5028611;28;20041;-51
2020/12/31 04:47:07;;;;;;;9.75;4.78;;;;;;;1.44;100.00;99479.75;5034253;28;20045;-50
2020/12/31 04:49:43;;;;;;;9.50;5.05;;;;;;;1.36;100.00;99475.16;5031685;28;20048;-55
2020/12/31 04:52:10;;;;;;;9.70;4.75;;;;;;;1.36;100.00;99469.88;5031744;28;20049;-53
2020/12/31 04:54:38;;;;;;;9.35;5.60;;;;;;;1.30;100.00;99475.69;5029319;28;20045;-54
2020/12/31 04:57:07;;;;;;;10.15;5.25;;;;;;;1.27;100.00;99471.53;5033457;28;20145;-54
2020/12/31 04:59:34;;;;;;;8.98;5.40;;;;;;;1.28;100.00;99475.84;5030828;28;20049;-55
2020/12/31 05:02:00;;;;;;;9.30;5.05;;;;;;;1.28;100.00;99472.38;5030748;28;20072;-53
2020/12/31 05:04:27;;;;;;;8.60;5.05;;;;;;;1.29;100.00;99474.88;5033161;28;20068;-55
2020/12/31 05:06:57;;;;;;;9.32;5.45;;;;;;;1.31;100.00;99472.94;5033499;28;20072;-55
2020/12/31 05:09:24;;;;;;;9.20;5.10;;;;;;;1.33;100.00;99478.06;5031983;28;20042;-52
2020/12/31 05:11:53;;;;;;;9.38;5.03;;;;;;;1.28;100.00;99477.66;5027598;28;20050;-54
2020/12/31 05:14:29;;;;;;;11.10;5.28;;;;;;;1.40;100.00;99476.53;5032990;28;20376;-53
2020/12/31 05:16:57;;;;;;;9.85;4.95;;;;;;;1.30;100.00;99475.69;5031233;28;20052;-52
2020/12/31 05:19:25;;;;;;;9.10;4.90;;;;;;;1.10;100.00;99485.34;5032747;28;20037;-52
2020/12/31 05:22:16;;;;;;;10.35;5.18;;;;;;;1.07;100.00;99480.38;5026115;28;20550;-53
2020/12/31 05:24:44;;;;;;;10.32;5.45;;;;;;;1.05;100.00;99482.28;5022375;28;20053;-55
2020/12/31 05:27:24;;;;;;;11.45;5.60;;;;;;;1.06;100.00;99473.44;5029988;28;20424;-53
2020/12/31 05:29:56;;;;;;;9.73;4.68;;;;;;;1.12;100.00;99486.03;5028969;28;20045;-54
2020/12/31 05:32:24;;;;;;;10.98;5.82;;;;;;;1.18;100.00;99477.63;5028603;28;20045;-51
2020/12/31 05:34:52;;;;;;;10.02;5.50;;;;;;;0.99;100.00;99486.28;5032810;28;20056;-52
2020/12/31 05:37:19;;;;;;;9.80;5.07;;;;;;;0.94;100.00;99488.50;5033096;28;20045;-53
2020/12/31 05:40:02;;;;;;;10.32;5.13;;;;;;;0.90;100.00;99485.28;5032112;28;20045;-55
2020/12/31 05:42:30;;;;;;;10.65;5.80;;;;;;;0.90;100.00;99487.09;5027950;28;20084;-53
2020/12/31 05:45:05;;;;;;;9.57;5.75;;;;;;;0.97;100.00;99483.78;5033480;28;20052;-54
2020/12/31 05:47:34;;;;;;;10.32;5.82;;;;;;;0.88;100.00;99489.88;5031505;28;20052;-53
2020/12/31 05:50:01;;;;;;;11.15;6.00;;;;;;;1.03;100.00;99485.03;5033985;28;20049;-52
2020/12/31 05:52:35;;;;;;;14.23;5.80;;;;;;;0.92;100.00;99477.25;5027328;28;20049;-54
2020/12/31 05:55:06;;;;;;;12.68;5.72;;;;;;;0.90;100.00;99481.84;5028966;28;20049;-54
2020/12/31 05:57:52;;;;;;;8.73;4.78;;;;;;;0.83;100.00;99490.25;5029937;28;20045;-53
2020/12/31 06:00:21;;;;;;;7.87;4.37;;;;;;;0.77;100.00;99479.44;5031773;28;20060;-53
2020/12/31 06:02:51;;;;;;;7.10;4.15;;;;;;;0.75;100.00;99486.63;5026521;28;20049;-53
2020/12/31 06:05:19;;;;;;;8.75;4.22;;;;;;;0.72;100.00;99479.00;5029392;28;20369;-53
2020/12/31 06:07:48;;;;;;;8.57;4.85;;;;;;;0.68;100.00;99491.56;5028251;28;20049;-52
2020/12/31 06:10:19;;;;;;;9.88;4.80;;;;;;;0.67;100.00;99485.47;5025910;28;20046;-51
2020/12/31 06:12:51;;;;;;;7.82;4.97;;;;;;;0.67;100.00;99480.22;5027781;28;20049;-54
2020/12/31 06:15:21;;;;;;;10.73;5.22;;;;;;;0.78;100.00;99481.94;5024926;28;20060;-53
2020/12/31 06:17:48;;;;;;;8.13;4.70;;;;;;;0.70;100.00;99487.03;5032074;28;20052;-53
2020/12/31 06:20:17;;;;;;;7.05;4.22;;;;;;;0.65;100.00;99487.41;5032217;28;20129;-54
2020/12/31 06:23:04;;;;;;;9.65;5.50;;;;;;;0.83;100.00;99487.59;5022884;28;20033;-54
2020/12/31 06:25:37;;;;;;;9.45;4.13;;;;;;;0.81;100.00;99480.84;5027852;28;20129;-51
2020/12/31 06:28:06;;;;;;;7.22;4.18;;;;;;;0.63;100.00;99497.22;5030756;28;20048;-50
2020/12/31 06:30:35;;;;;;;9.05;4.85;;;;;;;0.46;100.00;99498.66;5027186;28;20049;-53
2020/12/31 06:33:07;;;;;;;8.65;5.03;;;;;;;0.44;100.00;99491.88;5031235;28;20045;-54
2020/12/31 06:35:34;;;;;;;9.73;5.20;;;;;;;0.49;100.00;99492.31;5031236;28;20045;-55
2020/12/31 06:38:02;;;;;;;7.30;4.20;;;;;;;0.58;100.00;99485.44;5027576;28;20045;-53
2020/12/31 06:40:30;;;;;;;9.00;5.00;;;;;;;0.79;100.00;99488.84;5028291;28;20046;-54
2020/12/31 06:43:07;;;;;;;8.68;4.70;;;;;;;0.59;100.00;99497.63;5023033;28;20033;-54
2020/12/31 06:45:37;;;;;;;8.32;4.72;;;;;;;0.59;100.00;99489.75;5030580;28;20037;-52
2020/12/31 06:48:34;;;;;;;8.52;5.22;;;;;;;0.76;100.00;99488.28;5031002;28;20053;-53
2020/12/31 06:51:01;;;;;;;;;;;;;;;0.73;100.00;99486.75;5024657;28;20338;-55
2020/12/31 06:53:29;;;;;;;8.18;4.68;;;;;;;0.65;100.00;99487.41;5029981;28;19940;-53
2020/12/31 06:55:57;;;;;;;8.55;5.18;;;;;;;0.54;100.00;99486.66;5023757;28;20060;-53
2020/12/31 06:58:25;;;;;;;11.35;5.80;;;;;;;0.31;100.00;99489.44;5031079;28;20091;-50
2020/12/31 07:00:53;;;;;;;10.90;6.32;;;;;;;0.32;100.00;99489.31;5024141;28;20057;-52
2020/12/31 07:03:47;;;;;;;16.83;8.80;;;;;;;0.33;100.00;99493.59;5030072;28;20103;-52
2020/12/31 07:06:32;;;;;;;27.67;13.25;;;;;;;0.41;100.00;99484.25;5029325;28;20136;-53
2020/12/31 07:09:01;;;;;;;15.52;7.57;;;;;;;0.36;100.00;99481.19;5026357;28;20329;-52
2020/12/31 07:11:44;;;;;;;14.52;8.35;;;;;;;0.31;100.00;99484.19;5024372;28;20249;-53
2020/12/31 07:14:24;;;;;;;16.08;6.95;;;;;;;0.32;100.00;99493.75;5028877;28;20045;-53
2020/12/31 07:17:06;;;;;;;13.82;6.68;;;;;;;0.38;100.00;99495.03;5023265;28;20445;-53
2020/12/31 07:19:38;;;;;;;18.02;8.65;;;;;;;0.37;100.00;99504.69;5030489;28;20068;-55
2020/12/31 07:22:16;;;;;;;14.20;7.53;;;;;;;0.41;100.00;99506.13;5028013;28;20049;-54
2020/12/31 07:24:47;;;;;;;18.88;8.30;;;;;;;0.36;100.00;99512.72;5025376;28;20045;-51
2020/12/31 07:27:22;;;;;;;16.88;7.10;;;;;;;0.36;100.00;99512.72;5025438;28;20042;-54
2020/12/31 07:30:12;;;;;;;15.07;7.57;;;;;;;0.32;100.00;99512.13;5025863;28;20332;-54
2020/12/31 07:32:56;;;;;;;33.75;15.82;;;;;;;0.41;100.00;99510.50;5022077;28;20345;-53
2020/12/31 07:35:31;;;;;;;34.08;14.25;;;;;;;0.30;100.00;99514.06;5030063;28;20051;-52
2020/12/31 07:38:00;;;;;;;24.35;11.65;;;;;;;0.27;100.00;99512.53;5023831;28;20054;-54
2020/12/31 07:40:33;;;;;;;24.42;10.52;;;;;;;0.18;100.00;99510.66;5025163;28;20053;-50
2020/12/31 07:43:00;;;;;;;28.23;12.70;;;;;;;0.23;100.00;99505.84;5027913;28;20341;-54
2020/12/31 07:45:31;;;;;;;25.73;12.20;;;;;;;0.13;100.00;99512.84;5029649;28;20436;-53
2020/12/31 07:48:00;;;;;;;20.02;9.95;;;;;;;0.09;100.00;99512.25;5030064;28;20068;-52
2020/12/31 07:50:27;;;;;;;30.63;13.15;;;;;;;0.14;100.00;99515.34;5026832;28;20045;-53
2020/12/31 07:52:54;;;;;;;25.95;11.55;;;;;;;0.13;100.00;99518.09;5027242;28;20318;-54
2020/12/31 07:55:21;;;;;;;25.45;11.98;;;;;;;0.06;100.00;99514.28;5029546;28;20049;-55
2020/12/31 07:57:49;;;;;;;23.77;11.98;;;;;;;0.05;100.00;99510.84;5028158;28;20124;-53
2020/12/31 08:00:17;;;;;;;22.58;10.43;;;;;;;0.03;100.00;99515.41;5030123;28;20068;-51
2020/12/31 08:02:46;;;;;;;23.92;10.32;;;;;;;0.03;100.00;99520.66;5021022;28;20049;-53
2020/12/31 08:05:15;;;;;;;22.88;11.40;;;;;;;0.07;100.00;99521.22;5026220;28;20045;-55
2020/12/31 08:07:42;;;;;;;21.50;9.73;;;;;;;0.09;100.00;99532.44;5031178;28;20046;-54
2020/12/31 08:10:10;;;;;;;23.52;10.63;;;;;;;0.16;100.00;99528.34;5027729;28;20334;-51
2020/12/31 08:12:39;;;;;;;24.40;11.13;;;;;;;0.17;100.00;99537.84;5020266;28;20042;-55
2020/12/31 08:15:07;;;;;;;25.13;11.98;;;;;;;0.23;100.00;99539.16;5028222;28;20336;-53
2020/12/31 08:17:34;;;;;;;23.00;10.57;;;;;;;0.19;100.00;99537.75;5027510;28;20044;-53
2020/12/31 08:20:03;;;;;;;29.85;13.40;;;;;;;0.22;100.00;99538.31;5029018;28;20374;-54
2020/12/31 08:22:39;;;;;;;24.67;12.63;;;;;;;0.14;100.00;99536.34;5025033;28;20037;-54
2020/12/31 08:25:11;;;;;;;29.20;12.82;;;;;;;0.12;100.00;99538.25;5025430;28;20030;-53
2020/12/31 08:27:39;;;;;;;41.85;15.43;;;;;;;0.08;100.00;99544.72;5025452;28;20041;-50
2020/12/31 08:30:07;;;;;;;50.00;18.05;;;;;;;0.05;100.00;99538.91;5028259;28;20041;-50
2020/12/31 08:32:51;;;;;;;36.70;14.68;;;;;;;0.12;100.00;99548.75;5020996;28;20577;-54
2020/12/31 08:35:22;;;;;;;32.55;13.35;;;;;;;0.31;100.00;99542.81;5024894;28;20360;-52
2020/12/31 08:38:00;;;;;;;24.83;11.55;;;;;;;0.36;100.00;99549.47;5025636;28;20054;-54
2020/12/31 08:40:27;;;;;;;27.33;12.80;;;;;;;0.21;100.00;99541.06;5024032;28;20480;-51
2020/12/31 08:42:55;;;;;;;48.97;17.77;;;;;;;0.21;100.00;99541.06;5019011;28;20436;-54
2020/12/31 08:45:26;;;;;;;60.05;20.00;;;;;;;0.26;100.00;99549.41;5028028;28;20329;-51
2020/12/31 08:48:09;;;;;;;70.35;23.27;;;;;;;0.27;100.00;99543.19;5025676;28;20045;-55
2020/12/31 08:50:36;;;;;;;117.88;28.60;;;;;;;0.29;100.00;99547.34;5024903;28;20049;-55
2020/12/31 08:53:06;;;;;;;64.65;20.83;;;;;;;0.31;100.00;99548.06;5025733;28;20038;-53
2020/12/31 08:55:37;;;;;;;73.03;22.40;;;;;;;0.37;100.00;99556.38;5023649;28;20054;-54
2020/12/31 08:58:12;;;;;;;105.53;30.58;;;;;;;0.41;100.00;99553.38;5018830;28;20144;-55
2020/12/31 09:00:39;;;;;;;65.05;21.23;;;;;;;0.47;100.00;99559.94;5022538;28;20044;-53
2020/12/31 09:03:06;;;;;;;42.90;17.73;;;;;;;0.58;100.00;99557.22;5027092;28;20042;-54
2020/12/31 09:05:33;;;;;;;58.85;21.90;;;;;;;0.53;100.00;99556.78;5027990;28;20338;-56
2020/12/31 09:08:04;;;;;;;48.05;18.35;;;;;;;0.55;100.00;99561.91;5024812;28;20049;-52
2020/12/31 09:10:33;;;;;;;41.78;17.08;;;;;;;0.61;100.00;99562.22;5022432;28;20045;-53
2020/12/31 09:13:02;;;;;;;50.75;20.15;;;;;;;0.56;100.00;99567.03;5023177;28;20119;-54
2020/12/31 09:15:29;;;;;;;52.83;19.30;;;;;;;0.50;100.00;99572.81;5026482;28;20389;-55
2020/12/31 09:17:56;;;;;;;47.55;17.92;;;;;;;0.49;100.00;99566.69;5023646;28;20053;-55
2020/12/31 09:20:26;;;;;;;45.30;17.10;;;;;;;0.57;100.00;99570.47;5023898;28;20041;-52
2020/12/31 09:22:54;;;;;;;47.05;17.73;;;;;;;0.62;100.00;99574.38;5024090;28;20342;-51
2020/12/31 09:25:21;;;;;;;50.72;20.23;;;;;;;0.64;100.00;99569.84;5026549;28;20045;-54
2020/12/31 09:27:49;;;;;;;48.72;20.00;;;;;;;0.55;100.00;99567.97;5022285;28;20053;-55
2020/12/31 09:30:16;;;;;;;48.55;21.27;;;;;;;0.57;100.00;99573.94;5025683;28;20038;-54
2020/12/31 09:32:47;;;;;;;52.25;21.50;;;;;;;0.61;100.00;99572.72;5021785;28;20433;-54
2020/12/31 09:35:14;;;;;;;54.80;18.65;;;;;;;0.70;100.00;99570.28;5025314;28;20030;-54
2020/12/31 09:37:46;;;;;;;54.05;20.70;;;;;;;0.70;100.00;99573.75;5029472;28;20187;-53
2020/12/31 09:40:13;;;;;;;50.67;19.60;;;;;;;0.76;100.00;99580.28;5028638;28;20288;-52
2020/12/31 09:42:40;;;;;;;46.15;19.35;;;;;;;0.81;100.00;99580.72;5024846;28;20317;-56
2020/12/31 09:45:08;;;;;;;54.30;21.13;;;;;;;0.86;100.00;99578.53;5029144;28;20048;-54
2020/12/31 09:47:34;;;;;;;52.90;20.17;;;;;;;0.93;100.00;99582.28;5031234;28;20059;-54
2020/12/31 09:50:01;;;;;;;46.47;18.27;;;;;;;0.99;100.00;99586.19;5028854;28;20281;-56
2020/12/31 09:52:31;;;;;;;43.15;16.00;;;;;;;1.21;100.00;99582.56;5026189;28;20048;-57
2020/12/31 09:54:59;;;;;;;43.92;17.63;;;;;;;1.22;100.00;99586.84;5028297;28;20045;-55
2020/12/31 09:57:26;;;;;;;36.60;15.63;;;;;;;1.15;100.00;99588.34;5023650;28;20046;-55
2020/12/31 09:59:53;;;;;;;37.63;16.42;;;;;;;1.24;100.00;99584.91;5029092;28;20049;-53
2020/12/31 10:02:21;;;;;;;39.08;18.60;;;;;;;1.37;100.00;99585.50;5020708;28;20346;-54
2020/12/31 10:04:48;;;;;;;38.30;16.50;;;;;;;1.55;100.00;99584.88;5026596;28;20053;-52
2020/12/31 10:07:15;;;;;;;32.47;15.70;;;;;;;1.93;100.00;99596.44;5025414;28;20042;-55
2020/12/31 10:09:42;;;;;;;32.30;14.82;;;;;;;2.06;100.00;99596.97;5029632;28;20045;-53
2020/12/31 10:12:12;;;;;;;30.88;16.13;;;;;;;1.60;100.00;99592.34;5023354;28;20651;-53
2020/12/31 10:14:39;;;;;;;35.47;16.67;;;;;;;1.53;100.00;99592.91;5030633;28;20041;-55
2020/12/31 10:17:06;;;;;;;28.63;14.00;;;;;;;1.56;100.00;99591.81;5030436;28;20057;-54
2020/12/31 10:19:34;;;;;;;23.02;12.43;;;;;;;1.83;100.00;99595.56;5027422;28;20046;-51
2020/12/31 10:22:01;;;;;;;23.45;12.02;;;;;;;2.12;100.00;99592.16;5025087;28;20046;-54
2020/12/31 10:24:29;;;;;;;19.50;10.68;;;;;;;2.90;100.00;99594.66;5023541;28;20116;-51
2020/12/31 10:26:56;;;;;;;19.92;9.93;;;;;;;2.31;100.00;99593.94;5020686;28;20065;-53
2020/12/31 10:29:23;;;;;;;18.52;10.55;;;;;;;2.37;100.00;99588.94;5027904;28;20044;-53
2020/12/31 10:31:51;;;;;;;23.35;11.18;;;;;;;2.41;100.00;99592.13;5025583;28;20048;-50
2020/12/31 10:34:18;;;;;;;20.67;11.05;;;;;;;2.69;100.00;99585.13;5031884;28;20045;-54
2020/12/31 10:36:56;;;;;;;12.52;7.32;;;;;;;2.16;100.00;99589.09;5028665;28;20057;-56
2020/12/31 10:39:23;;;;;;;14.35;7.97;;;;;;;2.25;100.00;99595.31;5030117;28;20405;-53
2020/12/31 10:41:51;;;;;;;18.48;9.32;;;;;;;2.04;100.00;99590.19;5023410;28;20057;-54
2020/12/31 10:44:18;;;;;;;16.70;9.85;;;;;;;2.11;100.00;99585.19;5029923;28;20137;-51
2020/12/31 10:46:46;;;;;;;15.60;9.10;;;;;;;2.06;100.00;99581.19;5031363;28;20058;-53
2020/12/31 10:49:14;;;;;;;17.50;9.07;;;;;;;2.11;100.00;99588.66;5031993;28;20457;-51
2020/12/31 10:51:41;;;;;;;14.38;8.60;;;;;;;2.07;100.00;99579.41;5029630;28;20045;-52
2020/12/31 10:54:11;;;;;;;13.52;7.47;;;;;;;2.41;100.00;99587.69;5031170;28;20037;-50
2020/12/31 10:56:38;;;;;;;16.45;8.80;;;;;;;2.62;100.00;99581.41;5025190;28;20041;-52
2020/12/31 10:59:05;;;;;;;16.67;8.73;;;;;;;2.53;100.00;99588.34;5025887;28;20057;-51
2020/12/31 11:01:32;;;;;;;14.68;8.23;;;;;;;2.51;100.00;99579.78;5023036;28;20041;-49
2020/12/31 11:03:59;;;;;;;14.73;8.23;;;;;;;2.56;100.00;99584.63;5027624;28;20101;-54
2020/12/31 11:06:27;;;;;;;16.55;8.25;;;;;;;2.63;100.00;99579.63;5029578;28;20041;-54
2020/12/31 11:08:57;;;;;;;14.52;8.25;;;;;;;2.54;100.00;99581.31;5030433;28;20140;-54
2020/12/31 11:11:26;;;;;;;16.05;8.70;;;;;;;2.74;100.00;99582.91;5026823;28;20041;-53
2020/12/31 11:13:54;;;;;;;17.75;9.10;;;;;;;2.77;100.00;99584.44;5025099;28;20044;-53
2020/12/31 11:16:22;;;;;;;14.55;8.50;;;;;;;2.68;100.00;99580.84;5030917;28;20429;-53
2020/12/31 11:18:48;;;;;;;17.15;8.40;;;;;;;2.72;100.00;99584.88;5029447;28;20049;-52
2020/12/31 11:21:20;;;;;;;13.63;7.20;;;;;;;2.81;100.00;99582.31;5024046;28;20045;-55
2020/12/31 11:23:47;;;;;;;17.50;8.95;;;;;;;2.69;100.00;99585.13;5020851;28;20463;-51
2020/12/31 11:26:15;;;;;;;17.00;9.07;;;;;;;2.77;100.00;99576.53;5026444;28;20045;-51
2020/12/31 11:28:43;;;;;;;13.20;7.43;;;;;;;2.77;100.00;99583.63;5027229;28;20068;-52
2020/12/31 11:31:12;;;;;;;17.30;7.82;;;;;;;2.91;100.00;99583.97;5027399;28;20049;-54
2020/12/31 11:33:39;;;;;;;16.00;8.52;;;;;;;2.91;100.00;99585.78;5032173;28;20045;-55